sensor_id;sensor_type;location;lat;lon;timestamp;pressure;altitude;pressure_sealevel;temperature;humidity
31337;BME280;22846;42.654;23.314;2022-12-11T00:01:54;92460.28;;;23.79;52.00
31337;BME280;22846;42.654;23.314;2022-12-11T00:04:19;92460.78;;;23.78;52.48
31337;BME280;22846;42.654;23.314;2022-12-11T00:06:45;92466.25;;;23.78;51.87
31337;BME280;22846;42.654;23.314;2022-12-11T00:09:10;92464.00;;;23.76;52.08
31337;BME280;22846;42.654;23.314;2022-12-11T00:11:36;92459.78;;;23.75;52.12
31337;BME280;22846;42.654;23.314;2022-12-11T00:14:02;92473.41;;;23.75;52.14
31337;BME280;22846;42.654;23.314;2022-12-11T00:16:27;92409.94;;;23.75;52.28
31337;BME280;22846;42.654;23.314;2022-12-11T00:18:53;92479.31;;;23.74;52.30
31337;BME280;22846;42.654;23.314;2022-12-11T00:21:20;92429.97;;;23.72;52.11
31337;BME280;22846;42.654;23.314;2022-12-11T00:23:45;92459.16;;;23.66;52.62
31337;BME280;22846;42.654;23.314;2022-12-11T00:26:13;92420.31;;;23.71;52.44
31337;BME280;22846;42.654;23.314;2022-12-11T00:28:39;92456.97;;;23.70;52.65
31337;BME280;22846;42.654;23.314;2022-12-11T00:31:07;92447.28;;;23.69;52.54
31337;BME280;22846;42.654;23.314;2022-12-11T00:33:33;92433.63;;;23.63;52.28
31337;BME280;22846;42.654;23.314;2022-12-11T00:35:58;92457.44;;;23.68;52.64
31337;BME280;22846;42.654;23.314;2022-12-11T00:38:24;92454.47;;;23.66;52.33
31337;BME280;22846;42.654;23.314;2022-12-11T00:40:49;92459.16;;;23.66;52.79
31337;BME280;22846;42.654;23.314;2022-12-11T00:43:15;92427.66;;;23.65;52.70
31337;BME280;22846;42.654;23.314;2022-12-11T00:45:43;92436.06;;;23.61;52.70
31337;BME280;22846;42.654;23.314;2022-12-11T00:48:09;92428.91;;;23.64;52.25
31337;BME280;22846;42.654;23.314;2022-12-11T00:50:35;92434.84;;;23.62;52.67
31337;BME280;22846;42.654;23.314;2022-12-11T00:53:02;92425.94;;;23.62;52.61
31337;BME280;22846;42.654;23.314;2022-12-11T00:55:27;92442.28;;;23.62;52.33
31337;BME280;22846;42.654;23.314;2022-12-11T00:57:54;92444.25;;;23.61;52.45
31337;BME280;22846;42.654;23.314;2022-12-11T01:00:20;92427.16;;;23.61;52.69
31337;BME280;22846;42.654;23.314;2022-12-11T01:02:47;92418.66;;;23.53;52.59
31337;BME280;22846;42.654;23.314;2022-12-11T01:05:12;92422.94;;;23.60;52.42
31337;BME280;22846;42.654;23.314;2022-12-11T01:07:38;92432.34;;;23.59;52.58
31337;BME280;22846;42.654;23.314;2022-12-11T01:10:03;92467.78;;;23.59;52.67
31337;BME280;22846;42.654;23.314;2022-12-11T01:12:48;92424.66;;;23.57;52.53
31337;BME280;22846;42.654;23.314;2022-12-11T01:15:13;92444.97;;;23.56;52.59
31337;BME280;22846;42.654;23.314;2022-12-11T01:17:39;92442.97;;;23.57;52.66
31337;BME280;22846;42.654;23.314;2022-12-11T01:20:05;92432.56;;;23.55;52.80
31337;BME280;22846;42.654;23.314;2022-12-11T01:22:30;92461.81;;;23.55;52.66
31337;BME280;22846;42.654;23.314;2022-12-11T01:24:56;92448.19;;;23.55;52.88
31337;BME280;22846;42.654;23.314;2022-12-11T01:27:21;92495.75;;;23.54;53.13
31337;BME280;22846;42.654;23.314;2022-12-11T01:29:47;92400.44;;;23.34;52.72
31337;BME280;22846;42.654;23.314;2022-12-11T01:32:14;92448.66;;;23.53;52.87
31337;BME280;22846;42.654;23.314;2022-12-11T01:34:39;92370.81;;;23.52;52.88
31337;BME280;22846;42.654;23.314;2022-12-11T01:37:04;92407.50;;;23.51;52.73
31337;BME280;22846;42.654;23.314;2022-12-11T01:39:30;92378.97;;;23.47;52.85
31337;BME280;22846;42.654;23.314;2022-12-11T01:42:00;92346.53;;;23.49;53.01
31337;BME280;22846;42.654;23.314;2022-12-11T01:46:51;92338.34;;;23.49;53.18
31337;BME280;22846;42.654;23.314;2022-12-11T01:49:18;92373.50;;;23.47;53.35
31337;BME280;22846;42.654;23.314;2022-12-11T01:51:49;92326.72;;;23.48;53.05
31337;BME280;22846;42.654;23.314;2022-12-11T01:54:16;92325.16;;;23.42;52.94
31337;BME280;22846;42.654;23.314;2022-12-11T01:56:45;92363.38;;;23.47;52.78
31337;BME280;22846;42.654;23.314;2022-12-11T01:59:14;92442.03;;;23.29;47.87
31337;BME280;22846;42.654;23.314;2022-12-11T02:01:54;92432.25;;;22.97;48.29
31337;BME280;22846;42.654;23.314;2022-12-11T02:04:21;92412.41;;;22.91;49.88
31337;BME280;22846;42.654;23.314;2022-12-11T02:06:49;92379.44;;;22.89;51.07
31337;BME280;22846;42.654;23.314;2022-12-11T02:09:19;92342.31;;;22.92;52.13
31337;BME280;22846;42.654;23.314;2022-12-11T02:15:01;92305.53;;;23.02;53.07
31337;BME280;22846;42.654;23.314;2022-12-11T02:17:37;92313.50;;;23.05;53.10
31337;BME280;22846;42.654;23.314;2022-12-11T02:20:12;92283.31;;;23.08;53.16
31337;BME280;22846;42.654;23.314;2022-12-11T02:31:02;92265.56;;;23.18;53.27
31337;BME280;22846;42.654;23.314;2022-12-11T02:36:25;92289.84;;;23.22;53.12
31337;BME280;22846;42.654;23.314;2022-12-11T02:38:54;92311.66;;;23.22;53.24
31337;BME280;22846;42.654;23.314;2022-12-11T02:41:22;92331.00;;;23.24;53.11
31337;BME280;22846;42.654;23.314;2022-12-11T02:43:49;92343.13;;;23.23;53.55
31337;BME280;22846;42.654;23.314;2022-12-11T02:46:17;92347.34;;;23.24;53.26
31337;BME280;22846;42.654;23.314;2022-12-11T02:48:44;92320.84;;;23.24;53.52
31337;BME280;22846;42.654;23.314;2022-12-11T02:51:15;92310.69;;;23.25;53.64
31337;BME280;22846;42.654;23.314;2022-12-11T02:53:41;92322.31;;;23.25;53.24
31337;BME280;22846;42.654;23.314;2022-12-11T02:56:24;92331.75;;;23.24;53.48
31337;BME280;22846;42.654;23.314;2022-12-11T02:58:55;92335.22;;;23.25;53.62
31337;BME280;22846;42.654;23.314;2022-12-11T03:01:24;92316.13;;;23.25;53.68
31337;BME280;22846;42.654;23.314;2022-12-11T03:03:50;92279.41;;;23.15;53.72
31337;BME280;22846;42.654;23.314;2022-12-11T03:06:19;92324.31;;;23.25;53.82
31337;BME280;22846;42.654;23.314;2022-12-11T03:08:46;92285.91;;;23.23;53.85
31337;BME280;22846;42.654;23.314;2022-12-11T03:11:12;92285.91;;;23.23;53.80
31337;BME280;22846;42.654;23.314;2022-12-11T03:13:39;92317.84;;;23.22;53.55
31337;BME280;22846;42.654;23.314;2022-12-11T03:18:54;92332.72;;;23.21;53.52
31337;BME280;22846;42.654;23.314;2022-12-11T03:21:27;92329.22;;;23.21;53.60
31337;BME280;22846;42.654;23.314;2022-12-11T03:26:47;92317.31;;;23.18;53.62
31337;BME280;22846;42.654;23.314;2022-12-11T03:29:22;92349.28;;;23.18;53.80
31337;BME280;22846;42.654;23.314;2022-12-11T03:31:59;92330.22;;;23.18;54.13
31337;BME280;22846;42.654;23.314;2022-12-11T03:34:42;92340.56;;;23.14;53.73
31337;BME280;22846;42.654;23.314;2022-12-11T03:37:10;92360.19;;;23.18;53.97
31337;BME280;22846;42.654;23.314;2022-12-11T03:39:41;92345.06;;;23.17;53.97
31337;BME280;22846;42.654;23.314;2022-12-11T03:42:09;92354.72;;;23.18;54.07
31337;BME280;22846;42.654;23.314;2022-12-11T03:44:36;92354.72;;;23.18;53.98
31337;BME280;22846;42.654;23.314;2022-12-11T03:47:04;92370.75;;;23.10;53.77
31337;BME280;22846;42.654;23.314;2022-12-11T03:49:35;92373.69;;;23.07;54.08
31337;BME280;22846;42.654;23.314;2022-12-11T03:52:03;92357.34;;;23.07;54.17
31337;BME280;22846;42.654;23.314;2022-12-11T03:54:30;92400.78;;;23.16;54.01
31337;BME280;22846;42.654;23.314;2022-12-11T03:56:59;92410.94;;;23.15;53.81
31337;BME280;22846;42.654;23.314;2022-12-11T03:59:26;92413.16;;;23.17;53.78
31337;BME280;22846;42.654;23.314;2022-12-11T04:01:51;92419.84;;;23.16;53.71
31337;BME280;22846;42.654;23.314;2022-12-11T04:04:17;92389.88;;;23.16;53.78
31337;BME280;22846;42.654;23.314;2022-12-11T04:06:43;92441.09;;;23.12;54.00
31337;BME280;22846;42.654;23.314;2022-12-11T04:09:08;92414.88;;;23.14;53.73
31337;BME280;22846;42.654;23.314;2022-12-11T04:11:33;92416.09;;;23.13;54.04
31337;BME280;22846;42.654;23.314;2022-12-11T04:14:11;92421.56;;;23.13;53.83
31337;BME280;22846;42.654;23.314;2022-12-11T04:16:56;92418.84;;;23.13;53.74
31337;BME280;22846;42.654;23.314;2022-12-11T04:19:23;92423.50;;;23.13;53.96
31337;BME280;22846;42.654;23.314;2022-12-11T04:22:12;92426.00;;;23.11;53.97
31337;BME280;22846;42.654;23.314;2022-12-11T04:24:59;92418.06;;;23.13;54.16
31337;BME280;22846;42.654;23.314;2022-12-11T04:27:24;92442.34;;;23.11;54.01
31337;BME280;22846;42.654;23.314;2022-12-11T04:30:11;92454.47;;;23.10;53.89
31337;BME280;22846;42.654;23.314;2022-12-11T04:32:37;92470.31;;;23.11;54.31
31337;BME280;22846;42.654;23.314;2022-12-11T04:35:04;92465.38;;;23.10;54.12
31337;BME280;22846;42.654;23.314;2022-12-11T04:37:30;92454.47;;;23.10;54.14
31337;BME280;22846;42.654;23.314;2022-12-11T04:39:55;92457.94;;;23.10;54.38
31337;BME280;22846;42.654;23.314;2022-12-11T04:42:20;92463.31;;;23.05;54.08
31337;BME280;22846;42.654;23.314;2022-12-11T04:44:46;92468.81;;;23.10;54.41
31337;BME280;22846;42.654;23.314;2022-12-11T04:47:11;92494.56;;;23.09;54.25
31337;BME280;22846;42.654;23.314;2022-12-11T04:49:37;92492.59;;;23.10;54.08
31337;BME280;22846;42.654;23.314;2022-12-11T04:52:02;92484.16;;;23.08;54.10
31337;BME280;22846;42.654;23.314;2022-12-11T04:54:29;92460.38;;;23.08;54.23
31337;BME280;22846;42.654;23.314;2022-12-11T04:56:54;92461.59;;;23.08;54.40
31337;BME280;22846;42.654;23.314;2022-12-11T04:59:20;92492.31;;;23.08;54.00
31337;BME280;22846;42.654;23.314;2022-12-11T05:01:45;92475.22;;;23.08;53.95
31337;BME280;22846;42.654;23.314;2022-12-11T05:04:11;92509.63;;;23.05;54.33
31337;BME280;22846;42.654;23.314;2022-12-11T05:06:36;92485.38;;;23.07;54.23
31337;BME280;22846;42.654;23.314;2022-12-11T05:09:01;92478.44;;;23.06;54.41
31337;BME280;22846;42.654;23.314;2022-12-11T05:11:27;92486.59;;;23.06;54.10
31337;BME280;22846;42.654;23.314;2022-12-11T05:13:52;92482.38;;;23.05;54.38
31337;BME280;22846;42.654;23.314;2022-12-11T05:16:18;92469.44;;;23.00;54.11
31337;BME280;22846;42.654;23.314;2022-12-11T05:18:43;92472.72;;;23.04;54.33
31337;BME280;22846;42.654;23.314;2022-12-11T05:21:11;92484.81;;;23.03;54.45
31337;BME280;22846;42.654;23.314;2022-12-11T05:23:37;92486.31;;;23.04;53.93
31337;BME280;22846;42.654;23.314;2022-12-11T05:26:09;92494.22;;;23.02;54.25
31337;BME280;22846;42.654;23.314;2022-12-11T05:28:36;92478.63;;;23.03;54.30
31337;BME280;22846;42.654;23.314;2022-12-11T05:31:08;92499.66;;;23.02;54.43
31337;BME280;22846;42.654;23.314;2022-12-11T05:33:35;92484.06;;;23.03;54.30
31337;BME280;22846;42.654;23.314;2022-12-11T05:36:01;92494.22;;;23.02;54.10
31337;BME280;22846;42.654;23.314;2022-12-11T05:38:27;92452.59;;;23.02;54.34
31337;BME280;22846;42.654;23.314;2022-12-11T05:40:57;92470.94;;;23.01;54.19
31337;BME280;22846;42.654;23.314;2022-12-11T05:43:23;92452.59;;;23.02;54.16
31337;BME280;22846;42.654;23.314;2022-12-11T05:45:48;92442.19;;;23.00;54.18
31337;BME280;22846;42.654;23.314;2022-12-11T05:48:13;92469.44;;;23.00;54.34
31337;BME280;22846;42.654;23.314;2022-12-11T05:50:39;92472.91;;;23.01;54.55
31337;BME280;22846;42.654;23.314;2022-12-11T05:53:04;92460.03;;;23.01;54.53
31337;BME280;22846;42.654;23.314;2022-12-11T05:55:33;92473.38;;;22.99;54.43
31337;BME280;22846;42.654;23.314;2022-12-11T05:57:59;92464.00;;;23.00;54.50
31337;BME280;22846;42.654;23.314;2022-12-11T06:00:24;92442.19;;;23.00;54.38
31337;BME280;22846;42.654;23.314;2022-12-11T06:02:50;92447.66;;;23.00;54.59
31337;BME280;22846;42.654;23.314;2022-12-11T06:05:15;92453.09;;;23.00;54.52
31337;BME280;22846;42.654;23.314;2022-12-11T06:07:40;92440.69;;;22.99;54.52
31337;BME280;22846;42.654;23.314;2022-12-11T06:10:06;92423.63;;;22.99;54.49
31337;BME280;22846;42.654;23.314;2022-12-11T06:12:32;92446.16;;;22.99;54.27
31337;BME280;22846;42.654;23.314;2022-12-11T06:14:57;92418.91;;;22.99;54.59
31337;BME280;22846;42.654;23.314;2022-12-11T06:17:22;92438.69;;;22.94;54.64
31337;BME280;22846;42.654;23.314;2022-12-11T06:19:48;92474.59;;;22.98;54.65
31337;BME280;22846;42.654;23.314;2022-12-11T06:22:13;92471.16;;;22.98;54.48
31337;BME280;22846;42.654;23.314;2022-12-11T06:24:39;92469.16;;;22.98;54.40
31337;BME280;22846;42.654;23.314;2022-12-11T06:27:04;92483.53;;;22.99;54.68
31337;BME280;22846;42.654;23.314;2022-12-11T06:29:29;92485.72;;;22.95;54.83
31337;BME280;22846;42.654;23.314;2022-12-11T06:31:55;92471.16;;;22.98;54.80
31337;BME280;22846;42.654;23.314;2022-12-11T06:34:20;92479.31;;;22.98;54.41
31337;BME280;22846;42.654;23.314;2022-12-11T06:36:45;92482.03;;;22.98;54.79
31337;BME280;22846;42.654;23.314;2022-12-11T06:39:11;92481.28;;;22.97;54.87
31337;BME280;22846;42.654;23.314;2022-12-11T06:41:36;92499.13;;;22.98;54.94
31337;BME280;22846;42.654;23.314;2022-12-11T06:44:02;92444.59;;;22.93;54.20
31337;BME280;22846;42.654;23.314;2022-12-11T06:46:28;92481.28;;;22.97;54.72
31337;BME280;22846;42.654;23.314;2022-12-11T06:48:53;92459.50;;;22.97;54.64
31337;BME280;22846;42.654;23.314;2022-12-11T06:51:21;92479.78;;;22.96;54.36
31337;BME280;22846;42.654;23.314;2022-12-11T06:53:54;92490.16;;;22.92;54.50
31337;BME280;22846;42.654;23.314;2022-12-11T06:56:21;92484.50;;;22.96;54.43
31337;BME280;22846;42.654;23.314;2022-12-11T06:58:47;92495.38;;;22.96;54.31
31337;BME280;22846;42.654;23.314;2022-12-11T07:01:23;92478.28;;;22.95;54.25
31337;BME280;22846;42.654;23.314;2022-12-11T07:03:51;92515.19;;;22.96;54.35
31337;BME280;22846;42.654;23.314;2022-12-11T07:06:17;92513.97;;;22.97;54.63
31337;BME280;22846;42.654;23.314;2022-12-11T07:08:43;92496.66;;;23.00;55.15
31337;BME280;22846;42.654;23.314;2022-12-11T07:11:11;92519.97;;;23.01;54.42
31337;BME280;22846;42.654;23.314;2022-12-11T07:13:37;92494.97;;;23.03;54.10
31337;BME280;22846;42.654;23.314;2022-12-11T07:16:03;92492.53;;;23.05;54.29
31337;BME280;22846;42.654;23.314;2022-12-11T07:18:34;92490.81;;;23.07;54.38
31337;BME280;22846;42.654;23.314;2022-12-11T07:21:00;92488.09;;;23.07;54.28
31337;BME280;22846;42.654;23.314;2022-12-11T07:23:27;92492.22;;;23.03;54.44
31337;BME280;22846;42.654;23.314;2022-12-11T07:25:53;92495.56;;;23.12;54.39
31337;BME280;22846;42.654;23.314;2022-12-11T07:28:18;92518.47;;;23.20;54.37
31337;BME280;22846;42.654;23.314;2022-12-11T07:30:44;92529.47;;;23.31;54.43
31337;BME280;22846;42.654;23.314;2022-12-11T07:33:09;92488.22;;;23.43;54.08
31337;BME280;22846;42.654;23.314;2022-12-11T07:35:35;92514.34;;;23.55;53.37
31337;BME280;22846;42.654;23.314;2022-12-11T07:38:00;92545.69;;;23.65;53.30
31337;BME280;22846;42.654;23.314;2022-12-11T07:40:26;92519.00;;;23.75;53.40
31337;BME280;22846;42.654;23.314;2022-12-11T07:42:52;92548.09;;;23.83;53.28
31337;BME280;22846;42.654;23.314;2022-12-11T07:45:17;92578.41;;;23.91;52.84
31337;BME280;22846;42.654;23.314;2022-12-11T07:47:42;92515.97;;;23.98;52.64
31337;BME280;22846;42.654;23.314;2022-12-11T07:50:08;92556.69;;;24.01;52.84
31337;BME280;22846;42.654;23.314;2022-12-11T07:52:33;92548.22;;;23.99;53.06
31337;BME280;22846;42.654;23.314;2022-12-11T07:54:59;92549.22;;;23.96;53.18
31337;BME280;22846;42.654;23.314;2022-12-11T07:57:24;92556.34;;;23.94;52.85
31337;BME280;22846;42.654;23.314;2022-12-11T07:59:50;92524.88;;;23.93;52.61
31337;BME280;22846;42.654;23.314;2022-12-11T08:02:15;92590.13;;;23.96;52.71
31337;BME280;22846;42.654;23.314;2022-12-11T08:04:41;92548.00;;;24.03;52.65
31337;BME280;22846;42.654;23.314;2022-12-11T08:07:06;92554.28;;;24.09;52.43
31337;BME280;22846;42.654;23.314;2022-12-11T08:09:31;92575.66;;;24.16;52.81
31337;BME280;22846;42.654;23.314;2022-12-11T08:11:57;92567.50;;;24.21;52.65
31337;BME280;22846;42.654;23.314;2022-12-11T08:14:22;92547.22;;;24.28;52.10
31337;BME280;22846;42.654;23.314;2022-12-11T08:16:48;92525.16;;;24.31;52.24
31337;BME280;22846;42.654;23.314;2022-12-11T08:19:14;92552.22;;;24.35;52.06
31337;BME280;22846;42.654;23.314;2022-12-11T08:21:40;92575.78;;;24.32;52.11
31337;BME280;22846;42.654;23.314;2022-12-11T08:24:07;92587.41;;;24.27;52.14
31337;BME280;22846;42.654;23.314;2022-12-11T08:26:32;92573.25;;;24.23;52.36
31337;BME280;22846;42.654;23.314;2022-12-11T08:28:59;92573.25;;;24.23;52.29
31337;BME280;22846;42.654;23.314;2022-12-11T08:31:26;92567.56;;;24.27;52.13
31337;BME280;22846;42.654;23.314;2022-12-11T08:33:53;92583.97;;;24.32;52.40
31337;BME280;22846;42.654;23.314;2022-12-11T08:36:20;92566.88;;;24.37;52.05
31337;BME280;22846;42.654;23.314;2022-12-11T08:38:46;92542.66;;;24.45;52.17
31337;BME280;22846;42.654;23.314;2022-12-11T08:41:17;92544.88;;;24.46;52.13
31337;BME280;22846;42.654;23.314;2022-12-11T08:43:43;92542.66;;;24.50;52.19
31337;BME280;22846;42.654;23.314;2022-12-11T08:46:10;92556.56;;;24.52;51.86
31337;BME280;22846;42.654;23.314;2022-12-11T08:48:36;92563.75;;;24.50;52.50
31337;BME280;22846;42.654;23.314;2022-12-11T08:51:05;92566.44;;;24.44;52.31
31337;BME280;22846;42.654;23.314;2022-12-11T08:53:32;92550.00;;;24.39;52.32
31337;BME280;22846;42.654;23.314;2022-12-11T08:56:05;92548.22;;;24.30;51.94
31337;BME280;22846;42.654;23.314;2022-12-11T08:58:31;92561.09;;;24.30;52.72
31337;BME280;22846;42.654;23.314;2022-12-11T09:00:57;92571.56;;;24.31;52.29
31337;BME280;22846;42.654;23.314;2022-12-11T09:03:23;92538.44;;;24.18;52.47
31337;BME280;22846;42.654;23.314;2022-12-11T09:05:49;92570.13;;;24.41;52.27
31337;BME280;22846;42.654;23.314;2022-12-11T09:08:15;92569.44;;;24.46;52.31
31337;BME280;22846;42.654;23.314;2022-12-11T09:10:40;92553.38;;;24.54;52.42
31337;BME280;22846;42.654;23.314;2022-12-11T09:13:06;92546.47;;;24.58;51.82
31337;BME280;22846;42.654;23.314;2022-12-11T09:15:31;92546.97;;;24.62;51.65
31337;BME280;22846;42.654;23.314;2022-12-11T09:17:57;92550.47;;;24.63;51.87
31337;BME280;22846;42.654;23.314;2022-12-11T09:20:22;92558.38;;;24.61;51.53
31337;BME280;22846;42.654;23.314;2022-12-11T09:22:48;92531.31;;;24.57;51.33
31337;BME280;22846;42.654;23.314;2022-12-11T09:25:13;92543.69;;;24.53;51.79
31337;BME280;22846;42.654;23.314;2022-12-11T09:27:39;92525.41;;;24.33;52.14
31337;BME280;22846;42.654;23.314;2022-12-11T09:30:05;92551.84;;;24.47;52.42
31337;BME280;22846;42.654;23.314;2022-12-11T09:32:30;92544.69;;;24.55;52.63
31337;BME280;22846;42.654;23.314;2022-12-11T09:34:56;92558.38;;;24.61;52.12
31337;BME280;22846;42.654;23.314;2022-12-11T09:37:21;92542.03;;;24.66;52.50
31337;BME280;22846;42.654;23.314;2022-12-11T09:39:47;92556.19;;;24.70;52.05
31337;BME280;22846;42.654;23.314;2022-12-11T09:42:13;92532.88;;;24.75;52.09
31337;BME280;22846;42.654;23.314;2022-12-11T09:44:47;92546.75;;;24.71;52.27
31337;BME280;22846;42.654;23.314;2022-12-11T09:47:24;92580.06;;;24.75;52.67
31337;BME280;22846;42.654;23.314;2022-12-11T09:49:56;92539.06;;;24.70;51.15
31337;BME280;22846;42.654;23.314;2022-12-11T09:55:18;92527.81;;;24.57;51.74
31337;BME280;22846;42.654;23.314;2022-12-11T10:00:46;92545.47;;;24.61;52.09
31337;BME280;22846;42.654;23.314;2022-12-11T10:03:30;92523.66;;;24.67;52.02
31337;BME280;22846;42.654;23.314;2022-12-11T10:11:47;92529.44;;;24.79;52.05
31337;BME280;22846;42.654;23.314;2022-12-11T10:17:28;92528.38;;;24.72;52.29
31337;BME280;22846;42.654;23.314;2022-12-11T10:20:04;92540.78;;;24.67;52.14
31337;BME280;22846;42.654;23.314;2022-12-11T10:22:32;92443.41;;;24.11;50.50
31337;BME280;22846;42.654;23.314;2022-12-11T10:25:12;92516.63;;;24.49;51.24
31337;BME280;22846;42.654;23.314;2022-12-11T10:27:39;92530.81;;;24.59;51.87
31337;BME280;22846;42.654;23.314;2022-12-11T10:30:17;92528.59;;;24.63;52.26
31337;BME280;22846;42.654;23.314;2022-12-11T10:35:30;92535.38;;;24.78;52.52
31337;BME280;22846;42.654;23.314;2022-12-11T10:38:10;92536.16;;;24.84;52.70
31337;BME280;22846;42.654;23.314;2022-12-11T10:40:38;92530.22;;;24.91;51.99
31337;BME280;22846;42.654;23.314;2022-12-11T10:43:06;92515.56;;;24.94;51.93
31337;BME280;22846;42.654;23.314;2022-12-11T10:45:31;92499.19;;;24.94;52.00
31337;BME280;22846;42.654;23.314;2022-12-11T10:48:04;92500.19;;;24.91;52.26
31337;BME280;22846;42.654;23.314;2022-12-11T10:50:30;92501.41;;;24.90;52.09
31337;BME280;22846;42.654;23.314;2022-12-11T10:52:57;92499.19;;;24.88;52.44
31337;BME280;22846;42.654;23.314;2022-12-11T10:55:37;92504.66;;;24.88;52.31
31337;BME280;22846;42.654;23.314;2022-12-11T10:58:04;92498.44;;;24.93;52.53
31337;BME280;22846;42.654;23.314;2022-12-11T11:00:40;92512.13;;;24.99;52.64
31337;BME280;22846;42.654;23.314;2022-12-11T11:03:23;92493.50;;;25.03;52.73
31337;BME280;22846;42.654;23.314;2022-12-11T11:06:17;92491.28;;;25.07;52.68
31337;BME280;22846;42.654;23.314;2022-12-11T11:08:48;92488.28;;;25.05;52.61
31337;BME280;22846;42.654;23.314;2022-12-11T11:13:48;92502.16;;;24.96;52.77
31337;BME280;22846;42.654;23.314;2022-12-11T11:16:16;92491.97;;;24.91;52.62
31337;BME280;22846;42.654;23.314;2022-12-11T11:18:50;92481.75;;;24.86;52.99
31337;BME280;22846;42.654;23.314;2022-12-11T11:21:18;92485.72;;;24.85;53.05
31337;BME280;22846;42.654;23.314;2022-12-11T11:23:44;92476.28;;;24.86;52.88
31337;BME280;22846;42.654;23.314;2022-12-11T11:26:10;92483.78;;;24.91;52.45
31337;BME280;22846;42.654;23.314;2022-12-11T11:28:39;92494.44;;;24.89;52.56
31337;BME280;22846;42.654;23.314;2022-12-11T11:31:07;92490.00;;;24.97;52.81
31337;BME280;22846;42.654;23.314;2022-12-11T11:33:35;92478.84;;;25.00;52.33
31337;BME280;22846;42.654;23.314;2022-12-11T11:36:06;92488.53;;;25.01;52.76
31337;BME280;22846;42.654;23.314;2022-12-11T11:38:40;92483.56;;;25.00;52.58
31337;BME280;22846;42.654;23.314;2022-12-11T11:43:45;92492.72;;;24.91;52.71
31337;BME280;22846;42.654;23.314;2022-12-11T11:46:24;92494.19;;;24.87;53.13
31337;BME280;22846;42.654;23.314;2022-12-11T11:51:36;92473.34;;;24.84;52.82
31337;BME280;22846;42.654;23.314;2022-12-11T11:54:08;92467.38;;;24.91;52.77
31337;BME280;22846;42.654;23.314;2022-12-11T11:56:36;92464.41;;;24.89;52.46
31337;BME280;22846;42.654;23.314;2022-12-11T11:59:27;92464.66;;;24.91;52.23
31337;BME280;22846;42.654;23.314;2022-12-11T12:01:56;92463.66;;;24.94;52.18
31337;BME280;22846;42.654;23.314;2022-12-11T12:04:22;92465.16;;;24.95;52.25
31337;BME280;22846;42.654;23.314;2022-12-11T12:13:43;92464.38;;;24.83;52.40
31337;BME280;22846;42.654;23.314;2022-12-11T12:18:18;92476.50;;;24.77;52.64
31337;BME280;22846;42.654;23.314;2022-12-11T12:21:05;92481.50;;;24.78;52.74
31337;BME280;22846;42.654;23.314;2022-12-11T12:29:22;92455.47;;;24.88;52.91
31337;BME280;22846;42.654;23.314;2022-12-11T12:40:11;92497.66;;;24.82;53.14
31337;BME280;22846;42.654;23.314;2022-12-11T12:45:53;92522.44;;;24.73;53.25
31337;BME280;22846;42.654;23.314;2022-12-11T12:48:23;92533.88;;;24.77;53.43
31337;BME280;22846;42.654;23.314;2022-12-11T12:50:49;92531.16;;;24.82;53.25
31337;BME280;22846;42.654;23.314;2022-12-11T12:53:18;92534.41;;;24.81;53.04
31337;BME280;22846;42.654;23.314;2022-12-11T12:55:46;92555.28;;;24.89;52.86
31337;BME280;22846;42.654;23.314;2022-12-11T12:58:43;92553.09;;;24.93;51.61
31337;BME280;22846;42.654;23.314;2022-12-11T13:03:58;92558.59;;;24.99;51.32
31337;BME280;22846;42.654;23.314;2022-12-11T13:06:30;92560.56;;;25.04;51.58
31337;BME280;22846;42.654;23.314;2022-12-11T13:08:57;92551.66;;;25.03;51.37
31337;BME280;22846;42.654;23.314;2022-12-11T13:11:34;92558.91;;;25.12;50.91
31337;BME280;22846;42.654;23.314;2022-12-11T13:14:04;92587.50;;;25.16;51.14
31337;BME280;22846;42.654;23.314;2022-12-11T13:16:37;92588.50;;;25.19;50.96
31337;BME280;22846;42.654;23.314;2022-12-11T13:19:15;92593.72;;;25.17;50.65
31337;BME280;22846;42.654;23.314;2022-12-11T13:21:41;92606.41;;;25.25;51.47
31337;BME280;22846;42.654;23.314;2022-12-11T13:26:43;92616.16;;;25.32;51.56
31337;BME280;22846;42.654;23.314;2022-12-11T13:31:59;92644.47;;;25.34;51.54
31337;BME280;22846;42.654;23.314;2022-12-11T13:34:27;92650.72;;;25.35;51.47
31337;BME280;22846;42.654;23.314;2022-12-11T13:36:55;92677.56;;;25.36;51.90
31337;BME280;22846;42.654;23.314;2022-12-11T13:39:26;92654.63;;;25.23;50.07
31337;BME280;22846;42.654;23.314;2022-12-11T13:42:21;92680.00;;;25.29;47.65
31337;BME280;22846;42.654;23.314;2022-12-11T13:44:50;92693.91;;;25.25;49.52
31337;BME280;22846;42.654;23.314;2022-12-11T13:47:17;92687.69;;;25.25;49.71
31337;BME280;22846;42.654;23.314;2022-12-11T13:49:48;92699.13;;;25.29;49.88
31337;BME280;22846;42.654;23.314;2022-12-11T13:52:21;92701.41;;;25.30;50.10
31337;BME280;22846;42.654;23.314;2022-12-11T13:54:51;92710.59;;;25.33;49.95
31337;BME280;22846;42.654;23.314;2022-12-11T13:57:20;92710.88;;;25.35;50.42
31337;BME280;22846;42.654;23.314;2022-12-11T13:59:51;92710.09;;;25.34;50.44
31337;BME280;22846;42.654;23.314;2022-12-11T14:04:51;92719.09;;;25.40;50.20
31337;BME280;22846;42.654;23.314;2022-12-11T14:07:28;92734.75;;;25.40;50.50
31337;BME280;22846;42.654;23.314;2022-12-11T14:10:04;92729.56;;;25.42;50.12
31337;BME280;22846;42.654;23.314;2022-12-11T14:12:30;92732.28;;;25.42;50.17
31337;BME280;22846;42.654;23.314;2022-12-11T14:14:58;92737.44;;;25.34;45.53
31337;BME280;22846;42.654;23.314;2022-12-11T14:17:35;92741.13;;;25.26;47.87
31337;BME280;22846;42.654;23.314;2022-12-11T14:20:02;92739.38;;;25.23;48.65
31337;BME280;22846;42.654;23.314;2022-12-11T14:22:31;92742.09;;;25.23;48.82